Time;durP1;ratioP1;P1;durP2;ratioP2;P2;SDS_P1;SDS_P2;PMS_P1;PMS_P2;Temp;Humidity;BMP_temperature;BMP_pressure;BME280_temperature;BME280_humidity;BME280_pressure;Samples;Min_cycle;Max_cycle;Signal;HPM_P1;HPM_P2
2022/08/24 00:01:48;;;;;;;5.45;3.40;;;;;;;;;;5072418;28;20260;-86
2022/08/24 00:04:15;;;;;;;7.78;3.95;;;;;;;;;;5084665;28;20200;-86
2022/08/24 00:06:42;;;;;;;4.72;3.50;;;;;;;;;;5092217;28;20237;-85
2022/08/24 00:09:09;;;;;;;4.00;3.60;;;;;;;;;;5081725;28;20208;-85
2022/08/24 00:11:36;;;;;;;3.72;3.42;;;;;;;;;;5071762;28;20237;-86
2022/08/24 00:14:03;;;;;;;4.72;3.63;;;;;;;;;;5072445;28;20201;-85
2022/08/24 00:16:30;;;;;;;3.80;3.22;;;;;;;;;;5072066;28;20237;-86
2022/08/24 00:18:59;;;;;;;4.43;3.20;;;;;;;;;;5072557;28;20209;-85
2022/08/24 00:21:26;;;;;;;4.60;3.17;;;;;;;;;;5090396;28;20636;-85
2022/08/24 00:23:53;;;;;;;4.95;3.10;;;;;;;;;;5087100;28;20820;-85
2022/08/24 00:26:20;;;;;;;5.03;3.80;;;;;;;;;;5071869;28;20237;-85
2022/08/24 00:28:47;;;;;;;4.13;3.33;;;;;;;;;;5080605;28;20224;-85
2022/08/24 00:31:14;;;;;;;3.33;3.03;;;;;;;;;;5091655;28;20244;-85
2022/08/24 00:33:41;;;;;;;3.80;2.88;;;;;;;;;;5092456;28;20196;-85
2022/08/24 00:36:10;;;;;;;6.65;2.78;;;;;;;;;;5081047;28;20251;-85
2022/08/24 00:38:37;;;;;;;3.38;2.83;;;;;;;;;;5072624;28;20201;-86
2022/08/24 00:41:05;;;;;;;5.10;2.88;;;;;;;;;;5088695;28;20233;-85
2022/08/24 00:43:32;;;;;;;3.35;2.65;;;;;;;;;;5091912;28;20193;-85
2022/08/24 00:46:07;;;;;;;3.08;2.70;;;;;;;;;;5091977;28;20674;-86
2022/08/24 00:48:37;;;;;;;2.72;2.53;;;;;;;;;;5073893;28;20190;-86
2022/08/24 00:51:05;;;;;;;3.88;2.70;;;;;;;;;;5084169;28;20236;-85
2022/08/24 00:53:37;;;;;;;2.53;2.30;;;;;;;;;;5092716;28;20209;-85
2022/08/24 00:56:09;;;;;;;4.95;2.50;;;;;;;;;;5051653;28;20249;-85
2022/08/24 00:58:38;;;;;;;4.35;2.85;;;;;;;;;;5064605;28;20194;-85
2022/08/24 01:01:07;;;;;;;4.65;2.90;;;;;;;;;;5071792;28;20229;-85
2022/08/24 01:03:36;;;;;;;2.97;2.67;;;;;;;;;;5081197;28;20203;-85
2022/08/24 01:06:03;;;;;;;6.05;2.63;;;;;;;;;;5096024;28;20323;-86
2022/08/24 01:08:30;;;;;;;2.78;2.28;;;;;;;;;;5070134;28;20225;-85
2022/08/24 01:11:00;;;;;;;4.40;2.60;;;;;;;;;;5085059;28;20224;-86
2022/08/24 01:13:28;;;;;;;3.03;2.20;;;;;;;;;;5094404;28;20200;-85
2022/08/24 01:15:58;;;;;;;2.60;2.40;;;;;;;;;;5071750;28;20237;-85
2022/08/24 01:21:15;;;;;;;4.10;2.38;;;;;;;;;;5091462;28;20234;-85
2022/08/24 01:23:45;;;;;;;3.20;2.22;;;;;;;;;;5076179;28;20213;-85
2022/08/24 01:26:14;;;;;;;3.03;2.50;;;;;;;;;;5081425;28;20233;-85
2022/08/24 01:28:42;;;;;;;7.28;2.63;;;;;;;;;;5075751;28;20206;-85
2022/08/24 01:31:09;;;;;;;2.95;2.30;;;;;;;;;;5086502;28;20251;-86
2022/08/24 01:33:37;;;;;;;2.40;2.20;;;;;;;;;;5096045;28;20573;-85
2022/08/24 01:36:06;;;;;;;5.80;2.72;;;;;;;;;;5083764;28;20769;-85
2022/08/24 01:38:33;;;;;;;2.47;1.85;;;;;;;;;;5090400;28;20211;-86
2022/08/24 01:41:03;;;;;;;2.30;2.10;;;;;;;;;;5074919;28;20236;-85
2022/08/24 01:43:30;;;;;;;3.38;2.40;;;;;;;;;;5075520;28;20197;-85
2022/08/24 01:45:57;;;;;;;2.03;1.92;;;;;;;;;;5074521;28;20241;-85
2022/08/24 01:48:24;;;;;;;2.13;1.92;;;;;;;;;;5079625;28;20197;-86
2022/08/24 01:50:52;;;;;;;2.70;2.00;;;;;;;;;;5089869;28;20225;-86
2022/08/24 01:53:19;;;;;;;5.43;2.33;;;;;;;;;;5075771;28;20291;-85
2022/08/24 01:55:47;;;;;;;4.18;2.17;;;;;;;;;;5074554;28;20304;-85
2022/08/24 01:58:15;;;;;;;2.47;1.98;;;;;;;;;;5078675;28;20646;-86
2022/08/24 02:00:43;;;;;;;1.98;1.88;;;;;;;;;;5094736;28;20612;-85
2022/08/24 02:03:10;;;;;;;2.85;2.20;;;;;;;;;;5083764;28;20205;-85
2022/08/24 02:05:37;;;;;;;2.30;2.00;;;;;;;;;;5074548;28;20244;-85
2022/08/24 02:08:05;;;;;;;2.40;2.20;;;;;;;;;;5075131;28;20209;-85
2022/08/24 02:10:32;;;;;;;2.00;1.80;;;;;;;;;;5074716;28;20237;-85
2022/08/24 02:12:59;;;;;;;3.50;2.10;;;;;;;;;;5078597;28;20201;-85
2022/08/24 02:15:30;;;;;;;1.92;1.70;;;;;;;;;;5094389;28;20235;-85
2022/08/24 02:17:57;;;;;;;2.33;2.03;;;;;;;;;;5076687;28;20209;-85
2022/08/24 02:20:25;;;;;;;2.30;2.10;;;;;;;;;;5074268;28;20244;-85
2022/08/24 02:22:52;;;;;;;2.20;2.00;;;;;;;;;;5080914;28;20205;-85
2022/08/24 02:25:20;;;;;;;2.42;2.22;;;;;;;;;;5094192;28;20239;-85
2022/08/24 02:27:48;;;;;;;2.78;1.88;;;;;;;;;;5094858;28;20239;-85
2022/08/24 02:30:15;;;;;;;2.53;2.10;;;;;;;;;;5094110;28;20307;-85
2022/08/24 02:32:44;;;;;;;2.30;2.17;;;;;;;;;;5094141;28;20209;-85
2022/08/24 02:35:11;;;;;;;2.65;2.30;;;;;;;;;;5073703;28;20332;-85
2022/08/24 02:37:38;;;;;;;3.35;2.33;;;;;;;;;;5078887;28;20208;-85
2022/08/24 02:40:07;;;;;;;3.80;2.70;;;;;;;;;;5093933;28;20229;-85
2022/08/24 02:42:34;;;;;;;3.45;2.80;;;;;;;;;;5078966;28;20271;-86
2022/08/24 02:45:01;;;;;;;3.85;2.72;;;;;;;;;;5073760;28;20229;-85
2022/08/24 02:47:29;;;;;;;2.83;2.63;;;;;;;;;;5054134;28;20194;-85
2022/08/24 02:49:57;;;;;;;4.43;2.75;;;;;;;;;;5053947;28;20237;-85
2022/08/24 02:52:25;;;;;;;3.08;2.80;;;;;;;;;;5093020;28;20228;-86
2022/08/24 02:54:52;;;;;;;6.70;2.78;;;;;;;;;;5092570;28;20684;-85
2022/08/24 02:57:19;;;;;;;4.85;2.65;;;;;;;;;;5092108;28;20215;-85
2022/08/24 02:59:46;;;;;;;3.20;2.60;;;;;;;;;;5083909;28;20575;-85
2022/08/24 03:02:13;;;;;;;5.10;2.28;;;;;;;;;;5088916;28;20204;-86
2022/08/24 03:04:40;;;;;;;2.75;2.55;;;;;;;;;;5073177;28;20212;-85
2022/08/24 03:07:09;;;;;;;5.88;2.63;;;;;;;;;;5091558;28;20205;-85
2022/08/24 03:09:36;;;;;;;2.72;2.45;;;;;;;;;;5093594;28;20201;-85
2022/08/24 03:12:03;;;;;;;3.00;2.35;;;;;;;;;;5078794;28;20225;-86
2022/08/24 03:14:30;;;;;;;2.65;2.45;;;;;;;;;;5077689;28;20566;-85
2022/08/24 03:16:57;;;;;;;2.63;2.43;;;;;;;;;;5084421;28;20232;-85
2022/08/24 03:19:24;;;;;;;3.05;2.42;;;;;;;;;;5070306;28;20201;-86
2022/08/24 03:21:52;;;;;;;3.03;2.53;;;;;;;;;;5068690;28;20684;-86
2022/08/24 03:24:20;;;;;;;3.63;2.50;;;;;;;;;;5084766;28;20280;-86
2022/08/24 03:26:47;;;;;;;2.50;2.30;;;;;;;;;;5096827;22;20236;-84
2022/08/24 03:29:15;;;;;;;2.50;2.30;;;;;;;;;;5090034;28;20197;-84
2022/08/24 03:31:42;;;;;;;4.78;2.42;;;;;;;;;;5091275;28;20232;-83
2022/08/24 03:34:12;;;;;;;2.80;2.55;;;;;;;;;;5091102;28;20254;-84
2022/08/24 03:36:39;;;;;;;2.30;2.10;;;;;;;;;;5071924;28;20320;-84
2022/08/24 03:39:06;;;;;;;2.83;2.50;;;;;;;;;;5073514;28;20232;-83
2022/08/24 03:41:35;;;;;;;2.97;2.60;;;;;;;;;;5089612;28;20723;-84
2022/08/24 03:44:02;;;;;;;2.90;2.30;;;;;;;;;;5093127;28;20602;-84
2022/08/24 03:46:29;;;;;;;4.07;3.00;;;;;;;;;;5092244;28;20259;-84
2022/08/24 03:48:57;;;;;;;3.40;2.53;;;;;;;;;;5092754;28;20215;-84
2022/08/24 03:51:24;;;;;;;2.73;2.50;;;;;;;;;;5092052;28;20358;-84
2022/08/24 03:53:52;;;;;;;3.33;2.77;;;;;;;;;;5093262;28;20197;-84
2022/08/24 03:56:19;;;;;;;3.40;2.80;;;;;;;;;;5092684;28;20236;-84
2022/08/24 03:58:48;;;;;;;3.50;2.57;;;;;;;;;;5093085;28;20262;-84
2022/08/24 04:01:16;;;;;;;5.07;3.20;;;;;;;;;;5092066;28;20235;-84
2022/08/24 04:03:44;;;;;;;5.67;3.30;;;;;;;;;;5092853;28;20208;-85
2022/08/24 04:06:12;;;;;;;4.30;2.90;;;;;;;;;;5076824;28;20260;-85
2022/08/24 04:08:39;;;;;;;3.10;2.60;;;;;;;;;;5072365;28;20664;-85
2022/08/24 04:11:09;;;;;;;3.33;2.90;;;;;;;;;;5071896;28;20256;-83
2022/08/24 04:13:37;;;;;;;3.40;3.10;;;;;;;;;;5072666;28;20201;-83
2022/08/24 04:16:06;;;;;;;5.37;3.23;;;;;;;;;;5072271;28;20237;-81
2022/08/24 04:18:33;;;;;;;6.30;3.30;;;;;;;;;;5074615;28;20205;-82
2022/08/24 04:21:01;;;;;;;6.33;3.40;;;;;;;;;;5073900;28;20244;-81
2022/08/24 04:23:28;;;;;;;4.60;3.20;;;;;;;;;;5076342;28;20765;-81
2022/08/24 04:25:55;;;;;;;5.13;3.40;;;;;;;;;;5078352;28;20244;-81
2022/08/24 04:28:22;;;;;;;5.60;3.13;;;;;;;;;;5085005;28;20711;-81
2022/08/24 04:30:50;;;;;;;4.73;3.37;;;;;;;;;;5086721;28;20265;-82
2022/08/24 04:33:19;;;;;;;3.17;2.80;;;;;;;;;;5086516;28;20266;-81
2022/08/24 04:35:47;;;;;;;3.30;2.90;;;;;;;;;;5085892;28;20240;-81
2022/08/24 04:38:14;;;;;;;4.80;3.40;;;;;;;;;;5086759;28;20209;-81
2022/08/24 04:40:43;;;;;;;3.30;3.00;;;;;;;;;;5086326;28;20263;-80
2022/08/24 04:43:11;;;;;;;3.23;2.97;;;;;;;;;;5085037;28;20211;-81
2022/08/24 04:45:39;;;;;;;4.97;3.27;;;;;;;;;;5077988;28;20237;-81
2022/08/24 04:48:06;;;;;;;10.47;3.60;;;;;;;;;;5077930;28;20210;-82
2022/08/24 04:50:36;;;;;;;3.90;3.27;;;;;;;;;;5077713;28;20240;-82
2022/08/24 04:53:04;;;;;;;5.13;3.03;;;;;;;;;;5077417;28;20232;-82
2022/08/24 04:55:31;;;;;;;4.67;3.40;;;;;;;;;;5076082;28;20912;-82
2022/08/24 04:57:58;;;;;;;4.23;3.23;;;;;;;;;;5078166;28;20206;-81
2022/08/24 05:00:25;;;;;;;4.10;3.40;;;;;;;;;;5080562;28;20240;-81
2022/08/24 05:02:52;;;;;;;7.30;3.70;;;;;;;;;;5080887;28;20193;-81
2022/08/24 05:05:20;;;;;;;5.67;3.60;;;;;;;;;;5076746;28;20221;-79
2022/08/24 05:07:49;;;;;;;6.87;3.60;;;;;;;;;;5077479;28;20225;-79
2022/08/24 05:10:16;;;;;;;4.47;3.20;;;;;;;;;;5076708;28;20233;-79
2022/08/24 05:12:43;;;;;;;9.23;3.80;;;;;;;;;;5077070;28;20233;-79
2022/08/24 05:15:11;;;;;;;3.80;3.37;;;;;;;;;;5076406;28;20229;-79
2022/08/24 05:17:40;;;;;;;6.03;3.30;;;;;;;;;;5076809;28;20233;-79
2022/08/24 05:20:08;;;;;;;3.70;3.23;;;;;;;;;;5077109;28;20256;-79
2022/08/24 05:22:35;;;;;;;6.33;3.87;;;;;;;;;;5076315;28;20604;-79
2022/08/24 05:25:04;;;;;;;4.07;3.53;;;;;;;;;;5076650;28;20259;-79
2022/08/24 05:27:31;;;;;;;7.60;4.00;;;;;;;;;;5078343;28;20237;-81
2022/08/24 05:29:58;;;;;;;4.80;3.80;;;;;;;;;;5080106;28;20236;-79
2022/08/24 05:32:25;;;;;;;5.10;3.60;;;;;;;;;;5077300;28;20221;-79
2022/08/24 05:34:52;;;;;;;6.53;3.50;;;;;;;;;;5076675;28;20236;-79
2022/08/24 05:37:19;;;;;;;6.60;3.97;;;;;;;;;;5076587;28;20229;-79
2022/08/24 05:39:46;;;;;;;6.17;3.43;;;;;;;;;;5075043;28;20237;-79
2022/08/24 05:42:15;;;;;;;5.90;3.93;;;;;;;;;;5076084;28;20205;-79
2022/08/24 05:44:42;;;;;;;5.33;3.67;;;;;;;;;;5074908;28;20240;-79
2022/08/24 05:47:09;;;;;;;6.33;3.40;;;;;;;;;;5079086;28;20232;-79
2022/08/24 05:49:36;;;;;;;6.60;3.60;;;;;;;;;;5075282;28;20669;-79
2022/08/24 05:52:03;;;;;;;8.67;3.20;;;;;;;;;;5076396;28;20632;-79
2022/08/24 05:54:30;;;;;;;6.13;3.27;;;;;;;;;;5079342;28;20622;-79
2022/08/24 05:57:03;;;;;;;7.07;3.20;;;;;;;;;;5087041;28;20228;-79
2022/08/24 05:59:32;;;;;;;4.20;2.80;;;;;;;;;;5085203;28;20272;-79
2022/08/24 06:01:59;;;;;;;13.87;3.70;;;;;;;;;;5081390;28;20194;-79
2022/08/24 06:04:26;;;;;;;7.13;3.17;;;;;;;;;;5074786;28;20201;-79
2022/08/24 06:06:54;;;;;;;6.53;3.40;;;;;;;;;;5076045;28;20225;-79
2022/08/24 06:09:21;;;;;;;5.10;2.85;;;;;;;;;;5075912;28;20197;-79
2022/08/24 06:11:48;;;;;;;5.95;2.85;;;;;;;;;;5079011;28;20260;-81
2022/08/24 06:14:16;;;;;;;6.63;2.90;;;;;;;;;;5076402;28;20657;-79
2022/08/24 06:16:45;;;;;;;6.70;3.42;;;;;;;;;;5082106;28;20237;-81
2022/08/24 06:19:13;;;;;;;3.17;2.88;;;;;;;;;;5086165;28;20201;-81
2022/08/24 06:21:41;;;;;;;2.63;2.42;;;;;;;;;;5101624;28;20259;-81
2022/08/24 06:24:08;;;;;;;5.35;2.90;;;;;;;;;;5105152;28;20208;-81
2022/08/24 06:29:20;;;;;;;3.70;3.05;;;;;;;;;;5104072;28;20223;-81
2022/08/24 06:31:49;;;;;;;2.53;2.13;;;;;;;;;;5066223;28;20240;-81
2022/08/24 06:34:17;;;;;;;4.03;2.20;;;;;;;;;;5064475;28;20269;-81
2022/08/24 06:36:45;;;;;;;3.97;2.42;;;;;;;;;;5062100;28;20241;-81
2022/08/24 06:39:12;;;;;;;3.15;1.95;;;;;;;;;;5064097;28;20277;-81
2022/08/24 06:41:40;;;;;;;2.42;2.05;;;;;;;;;;5063973;28;20230;-81
2022/08/24 06:44:07;;;;;;;2.95;1.88;;;;;;;;;;5063633;28;20209;-81
2022/08/24 06:46:35;;;;;;;2.15;1.75;;;;;;;;;;5063405;28;20722;-82
2022/08/24 06:49:04;;;;;;;2.25;2.08;;;;;;;;;;5062393;28;20604;-82
2022/08/24 06:51:31;;;;;;;3.35;2.40;;;;;;;;;;5062000;28;20242;-82
2022/08/24 06:53:58;;;;;;;5.47;3.20;;;;;;;;;;5062102;28;20616;-82
2022/08/24 06:56:26;;;;;;;3.20;2.60;;;;;;;;;;5058836;28;20766;-81
2022/08/24 06:58:53;;;;;;;2.53;2.33;;;;;;;;;;5079146;28;20214;-82
2022/08/24 07:01:22;;;;;;;3.47;2.45;;;;;;;;;;5079701;28;20317;-82
2022/08/24 07:03:49;;;;;;;4.03;1.90;;;;;;;;;;5078088;28;20205;-82
2022/08/24 07:06:18;;;;;;;2.40;2.20;;;;;;;;;;5076543;28;20236;-82
2022/08/24 07:08:45;;;;;;;3.80;1.92;;;;;;;;;;5077727;28;20209;-82
2022/08/24 07:11:13;;;;;;;3.67;2.05;;;;;;;;;;5078264;28;20782;-82
2022/08/24 07:13:40;;;;;;;2.67;1.77;;;;;;;;;;5078784;28;20285;-82
2022/08/24 07:16:08;;;;;;;5.13;1.90;;;;;;;;;;5078288;28;20240;-82
2022/08/24 07:18:35;;;;;;;2.13;2.03;;;;;;;;;;5078351;28;20205;-82
2022/08/24 07:21:02;;;;;;;1.77;1.67;;;;;;;;;;5075462;28;20738;-81
2022/08/24 07:23:31;;;;;;;3.33;1.95;;;;;;;;;;5077779;28;20208;-82
2022/08/24 07:26:05;;;;;;;3.08;2.03;;;;;;;;;;5081128;28;20241;-79
2022/08/24 07:28:32;;;;;;;2.10;1.70;;;;;;;;;;5081418;28;20649;-80
2022/08/24 07:30:59;;;;;;;2.47;1.73;;;;;;;;;;5076069;28;20263;-79
2022/08/24 07:33:26;;;;;;;2.95;1.85;;;;;;;;;;5077664;28;20248;-82
2022/08/24 07:35:53;;;;;;;3.22;1.80;;;;;;;;;;5078400;28;20716;-82
2022/08/24 07:38:20;;;;;;;4.28;1.75;;;;;;;;;;5085704;28;20201;-82
2022/08/24 07:40:49;;;;;;;9.75;3.05;;;;;;;;;;5086573;28;20241;-84
2022/08/24 07:43:16;;;;;;;2.00;1.90;;;;;;;;;;5080580;28;20201;-83
2022/08/24 07:45:43;;;;;;;5.47;2.05;;;;;;;;;;5093132;28;20249;-83
2022/08/24 07:48:10;;;;;;;5.95;2.97;;;;;;;;;;5096737;28;20173;-83
2022/08/24 07:50:37;;;;;;;2.80;2.00;;;;;;;;;;5094482;28;20232;-83
2022/08/24 07:53:04;;;;;;;1.70;1.60;;;;;;;;;;5091935;28;20208;-83
2022/08/24 07:55:31;;;;;;;3.42;2.10;;;;;;;;;;5096145;28;20224;-84
2022/08/24 07:58:00;;;;;;;1.90;1.67;;;;;;;;;;5079071;28;20197;-83
2022/08/24 08:00:27;;;;;;;2.00;1.85;;;;;;;;;;5075909;28;20990;-83
2022/08/24 08:02:55;;;;;;;1.95;1.85;;;;;;;;;;5075599;28;20197;-83
2022/08/24 08:05:24;;;;;;;2.55;1.92;;;;;;;;;;5073351;28;20735;-83
2022/08/24 08:07:51;;;;;;;2.17;1.98;;;;;;;;;;5072681;28;20709;-83
2022/08/24 08:10:18;;;;;;;1.80;1.70;;;;;;;;;;5074121;28;20240;-83
2022/08/24 08:12:45;;;;;;;2.25;1.65;;;;;;;;;;5074014;28;20221;-83
2022/08/24 08:15:14;;;;;;;1.70;1.60;;;;;;;;;;5079841;28;20236;-84
2022/08/24 08:17:41;;;;;;;1.70;1.60;;;;;;;;;;5094890;28;20354;-83
2022/08/24 08:20:09;;;;;;;4.25;1.85;;;;;;;;;;5086039;28;20712;-83
2022/08/24 08:25:21;;;;;;;2.65;1.70;;;;;;;;;;5073723;28;20243;-84
2022/08/24 08:27:49;;;;;;;2.80;1.80;;;;;;;;;;5072944;28;20260;-84
2022/08/24 08:30:18;;;;;;;2.65;1.88;;;;;;;;;;5073818;28;20240;-84
2022/08/24 08:32:45;;;;;;;1.88;1.55;;;;;;;;;;5075896;28;20225;-84
2022/08/24 08:35:12;;;;;;;3.90;1.95;;;;;;;;;;5077650;28;20582;-83
2022/08/24 08:37:39;;;;;;;2.53;1.80;;;;;;;;;;5080470;28;20704;-83
2022/08/24 08:40:08;;;;;;;3.60;1.50;;;;;;;;;;5080827;28;20308;-84
2022/08/24 08:43:00;;;;;;;3.25;1.73;;;;;;;;;;5079020;28;20232;-84
2022/08/24 08:45:32;;;;;;;1.98;1.60;;;;;;;;;;5076307;28;20260;-83
2022/08/24 08:48:10;;;;;;;3.30;1.85;;;;;;;;;;5078021;28;20193;-84
2022/08/24 08:50:46;;;;;;;2.25;1.80;;;;;;;;;;5075722;28;20263;-84
2022/08/24 08:53:25;;;;;;;1.60;1.50;;;;;;;;;;5076042;28;20315;-82
2022/08/24 08:55:58;;;;;;;1.60;1.50;;;;;;;;;;5075835;28;20233;-84
2022/08/24 08:58:39;;;;;;;2.50;1.85;;;;;;;;;;5075532;28;20207;-82
2022/08/24 09:01:13;;;;;;;3.15;1.75;;;;;;;;;;5089464;28;20258;-83
2022/08/24 09:03:58;;;;;;;3.28;1.60;;;;;;;;;;5096505;28;20189;-83
2022/08/24 09:06:35;;;;;;;2.13;1.50;;;;;;;;;;5077380;28;20236;-83
2022/08/24 09:09:11;;;;;;;1.95;1.67;;;;;;;;;;5075527;28;20562;-82
2022/08/24 09:11:44;;;;;;;2.05;1.75;;;;;;;;;;5074728;28;20286;-82
2022/08/24 09:14:24;;;;;;;1.70;1.60;;;;;;;;;;5076175;28;20216;-82
2022/08/24 09:16:59;;;;;;;2.00;1.63;;;;;;;;;;5096019;28;20236;-83
2022/08/24 09:19:30;;;;;;;1.60;1.50;;;;;;;;;;5095409;28;20224;-82
2022/08/24 09:22:04;;;;;;;1.98;1.58;;;;;;;;;;5109051;28;20189;-82
2022/08/24 09:24:58;;;;;;;1.67;1.58;;;;;;;;;;5093556;28;20753;-83
2022/08/24 09:27:31;;;;;;;1.80;1.70;;;;;;;;;;5042388;22;20281;-91
2022/08/24 09:30:03;;;;;;;1.70;1.60;;;;;;;;;;5039978;28;20253;-90
2022/08/24 09:32:44;;;;;;;1.95;1.77;;;;;;;;;;5054937;28;20211;-90
2022/08/24 09:35:14;;;;;;;1.77;1.55;;;;;;;;;;5053959;28;20229;-91
2022/08/24 09:37:54;;;;;;;1.55;1.45;;;;;;;;;;5054111;28;20226;-91
2022/08/24 09:40:30;;;;;;;2.00;1.80;;;;;;;;;;5053879;28;20720;-91
2022/08/24 09:43:15;;;;;;;1.50;1.40;;;;;;;;;;5054130;28;20197;-90
2022/08/24 09:45:58;;;;;;;1.60;1.50;;;;;;;;;;5054358;28;20236;-89
2022/08/24 09:48:40;;;;;;;1.88;1.30;;;;;;;;;;5054814;28;20230;-90
2022/08/24 09:51:18;;;;;;;3.33;1.70;;;;;;;;;;5053334;28;20234;-90
2022/08/24 09:54:02;;;;;;;1.88;1.60;;;;;;;;;;5053541;28;20225;-91
2022/08/24 09:56:37;;;;;;;2.90;1.60;;;;;;;;;;5053533;28;20317;-90
2022/08/24 09:59:15;;;;;;;2.13;1.40;;;;;;;;;;5054054;28;20190;-90
2022/08/24 10:01:49;;;;;;;1.65;1.55;;;;;;;;;;5053450;28;20685;-92
2022/08/24 10:04:22;;;;;;;1.95;1.25;;;;;;;;;;5050164;28;20234;-91
2022/08/24 10:06:54;;;;;;;2.38;1.23;;;;;;;;;;5038938;28;20234;-91
2022/08/24 10:09:45;;;;;;;2.00;1.27;;;;;;;;;;5034281;28;20206;-90
2022/08/24 10:12:18;;;;;;;2.95;1.50;;;;;;;;;;5033290;28;20226;-92
2022/08/24 10:14:50;;;;;;;1.50;1.40;;;;;;;;;;5033552;28;20690;-92
2022/08/24 10:17:22;;;;;;;1.55;1.20;;;;;;;;;;5033478;28;20227;-91
2022/08/24 10:20:00;;;;;;;1.58;1.45;;;;;;;;;;5033660;28;20241;-91
2022/08/24 10:22:33;;;;;;;1.48;1.20;;;;;;;;;;5033401;28;20215;-90
2022/08/24 10:25:07;;;;;;;1.88;1.50;;;;;;;;;;5033342;28;20234;-91
2022/08/24 10:27:40;;;;;;;2.53;1.27;;;;;;;;;;5033659;28;20248;-90
2022/08/24 10:30:20;;;;;;;2.75;1.73;;;;;;;;;;5033550;28;20276;-92
2022/08/24 10:32:53;;;;;;;2.90;1.50;;;;;;;;;;5033819;28;20255;-92
2022/08/24 10:35:24;;;;;;;2.28;1.30;;;;;;;;;;5033165;28;20230;-91
2022/08/24 10:41:01;;;;;;;1.25;1.15;;;;;;;;;;5033228;28;20280;-91
2022/08/24 10:43:41;;;;;;;2.45;1.67;;;;;;;;;;5033645;28;20186;-91
2022/08/24 10:46:23;;;;;;;4.60;2.00;;;;;;;;;;5033379;28;20242;-91
2022/08/24 10:49:00;;;;;;;4.07;1.50;;;;;;;;;;5031416;28;20694;-91
2022/08/24 10:51:35;;;;;;;3.60;1.50;;;;;;;;;;5032800;28;20230;-91
2022/08/24 10:54:03;;;;;;;2.45;1.42;;;;;;;;;;5033462;28;20312;-91
2022/08/24 10:56:32;;;;;;;1.98;1.58;;;;;;;;;;5033226;28;20325;-92
2022/08/24 10:59:03;;;;;;;1.38;1.27;;;;;;;;;;5032464;28;20236;-91
2022/08/24 11:01:32;;;;;;;4.80;1.58;;;;;;;;;;5032972;28;20746;-91
2022/08/24 11:04:05;;;;;;;2.05;1.35;;;;;;;;;;5021891;28;20210;-91
2022/08/24 11:06:35;;;;;;;2.22;1.80;;;;;;;;;;5013018;28;20269;-91
2022/08/24 11:09:05;;;;;;;2.47;1.83;;;;;;;;;;5024540;28;20194;-92
2022/08/24 11:11:33;;;;;;;2.28;1.50;;;;;;;;;;5033162;28;20238;-92
2022/08/24 11:14:02;;;;;;;2.28;1.48;;;;;;;;;;5033587;28;20701;-92
2022/08/24 11:16:32;;;;;;;3.88;1.70;;;;;;;;;;5032656;28;20241;-92
2022/08/24 11:19:00;;;;;;;1.60;1.50;;;;;;;;;;5033328;28;20213;-93
2022/08/24 11:21:48;;;;;;;3.83;1.90;;;;;;;;;;5032584;28;20238;-90
2022/08/24 11:24:33;;;;;;;4.38;2.60;;;;;;;;;;5027807;28;20280;-92
2022/08/24 11:27:03;;;;;;;2.35;1.48;;;;;;;;;;5002915;28;20234;-92
2022/08/24 11:29:50;;;;;;;2.75;1.50;;;;;;;;;;5013448;28;20840;-92
2022/08/24 11:32:26;;;;;;;1.77;1.65;;;;;;;;;;5035673;28;20268;-92
2022/08/24 11:34:53;;;;;;;2.78;1.92;;;;;;;;;;5031870;28;20233;-90
2022/08/24 11:37:23;;;;;;;3.67;1.95;;;;;;;;;;5029498;28;20230;-91
2022/08/24 11:39:50;;;;;;;3.03;1.92;;;;;;;;;;5032552;28;20230;-91
2022/08/24 11:42:26;;;;;;;2.50;1.38;;;;;;;;;;5027948;28;20653;-90
2022/08/24 11:44:55;;;;;;;3.03;1.50;;;;;;;;;;5032930;28;20617;-90
2022/08/24 11:47:38;;;;;;;2.05;1.65;;;;;;;;;;5032865;28;20256;-91
2022/08/24 11:50:08;;;;;;;1.75;1.65;;;;;;;;;;5030484;28;20369;-89
2022/08/24 11:52:42;;;;;;;4.60;1.75;;;;;;;;;;5031990;28;20193;-91
2022/08/24 11:55:12;;;;;;;3.97;1.80;;;;;;;;;;5031067;28;20234;-90
2022/08/24 11:57:42;;;;;;;4.32;1.80;;;;;;;;;;5031424;28;20218;-92
2022/08/24 12:00:12;;;;;;;2.25;2.05;;;;;;;;;;5031922;28;20226;-88
2022/08/24 12:02:42;;;;;;;1.55;1.30;;;;;;;;;;5032519;28;20202;-90
2022/08/24 12:05:23;;;;;;;5.13;2.97;;;;;;;;;;5032733;28;20230;-91
2022/08/24 12:07:55;;;;;;;8.23;2.22;;;;;;;;;;5032193;28;20237;-89
2022/08/24 12:10:26;;;;;;;1.92;1.63;;;;;;;;;;5032042;28;20234;-91
2022/08/24 12:12:58;;;;;;;3.78;1.65;;;;;;;;;;5033509;28;20190;-91
2022/08/24 12:15:30;;;;;;;2.58;1.50;;;;;;;;;;5032433;28;20236;-91
2022/08/24 12:18:01;;;;;;;7.05;1.95;;;;;;;;;;5031148;28;20230;-83
2022/08/24 12:20:32;;;;;;;4.30;1.60;;;;;;;;;;5031721;28;20229;-83
2022/08/24 12:23:01;;;;;;;2.85;2.55;;;;;;;;;;5032020;28;20328;-83
2022/08/24 12:28:23;;;;;;;3.33;1.88;;;;;;;;;;5023174;28;20228;-83
2022/08/24 12:30:51;;;;;;;3.50;1.60;;;;;;;;;;5029087;28;20237;-83
2022/08/24 12:33:19;;;;;;;3.35;1.77;;;;;;;;;;5021974;28;20198;-82
2022/08/24 12:35:48;;;;;;;3.47;1.92;;;;;;;;;;5011163;28;20235;-85
2022/08/24 12:38:18;;;;;;;6.15;1.85;;;;;;;;;;5010945;28;20230;-83
2022/08/24 12:40:47;;;;;;;2.40;1.65;;;;;;;;;;5010625;28;20238;-83
2022/08/24 12:43:20;;;;;;;1.92;1.75;;;;;;;;;;5011156;28;20206;-83
2022/08/24 12:45:47;;;;;;;3.35;1.85;;;;;;;;;;5010887;28;20265;-81
2022/08/24 12:48:18;;;;;;;3.65;2.25;;;;;;;;;;5011107;28;20714;-83
2022/08/24 12:50:55;;;;;;;2.03;1.55;;;;;;;;;;5023988;28;20245;-84
2022/08/24 12:53:32;;;;;;;1.60;1.50;;;;;;;;;;5034226;28;20283;-82
2022/08/24 12:56:18;;;;;;;4.47;1.77;;;;;;;;;;5030039;28;20326;-84
2022/08/24 12:59:03;;;;;;;2.10;1.83;;;;;;;;;;5024283;28;20682;-84
2022/08/24 13:01:34;;;;;;;3.13;1.63;;;;;;;;;;5030311;28;20237;-84
2022/08/24 13:04:07;;;;;;;2.55;1.38;;;;;;;;;;5028887;28;20233;-82
2022/08/24 13:06:39;;;;;;;3.63;1.85;;;;;;;;;;5030025;28;20249;-83
2022/08/24 13:09:07;;;;;;;4.03;1.85;;;;;;;;;;5025796;28;20215;-84
2022/08/24 13:11:36;;;;;;;3.85;2.03;;;;;;;;;;5028836;28;20226;-82
2022/08/24 13:14:08;;;;;;;3.40;1.75;;;;;;;;;;5013406;28;20751;-84
2022/08/24 13:16:46;;;;;;;2.25;1.90;;;;;;;;;;5010492;28;20238;-83
2022/08/24 13:19:15;;;;;;;2.75;1.80;;;;;;;;;;5010705;28;20563;-83
2022/08/24 13:21:44;;;;;;;4.07;1.98;;;;;;;;;;5012332;28;20235;-82
2022/08/24 13:24:30;;;;;;;3.22;1.67;;;;;;;;;;5016475;28;20195;-85
2022/08/24 13:26:58;;;;;;;12.65;3.70;;;;;;;;;;5024323;28;20241;-87
2022/08/24 13:29:26;;;;;;;6.80;2.00;;;;;;;;;;5032253;28;20233;-87
2022/08/24 13:31:56;;;;;;;4.20;1.40;;;;;;;;;;5022787;28;20676;-86
2022/08/24 13:34:36;;;;;;;3.22;1.63;;;;;;;;;;5017954;28;20353;-86
2022/08/24 13:37:13;;;;;;;3.80;1.80;;;;;;;;;;5023655;28;20222;-87
2022/08/24 13:39:53;;;;;;;4.50;2.05;;;;;;;;;;5033834;28;20206;-88
2022/08/24 13:42:38;;;;;;;2.97;2.00;;;;;;;;;;5034702;28;20214;-88
2022/08/24 13:45:15;;;;;;;2.53;1.63;;;;;;;;;;5032151;28;20233;-86
2022/08/24 13:47:51;;;;;;;1.98;1.73;;;;;;;;;;5032978;28;20254;-89
2022/08/24 13:50:28;;;;;;;2.50;1.80;;;;;;;;;;5029019;28;20238;-89
2022/08/24 13:53:03;;;;;;;5.03;2.00;;;;;;;;;;5014027;28;20199;-87
2022/08/24 13:55:32;;;;;;;2.40;1.73;;;;;;;;;;5013826;28;20244;-88
2022/08/24 13:58:13;;;;;;;1.98;1.88;;;;;;;;;;5018263;28;20234;-86
2022/08/24 14:00:43;;;;;;;2.67;1.80;;;;;;;;;;5026350;28;20234;-88
2022/08/24 14:03:38;;;;;;;2.45;1.92;;;;;;;;;;5027429;28;20282;-87
2022/08/24 14:06:18;;;;;;;2.30;1.88;;;;;;;;;;5034517;28;20313;-86
2022/08/24 14:08:48;;;;;;;2.95;1.80;;;;;;;;;;5034334;28;20590;-87
2022/08/24 14:11:19;;;;;;;2.40;1.98;;;;;;;;;;5033489;28;20241;-87
2022/08/24 14:13:53;;;;;;;2.40;1.90;;;;;;;;;;5014172;28;20289;-87
2022/08/24 14:19:18;;;;;;;2.70;1.85;;;;;;;;;;5014072;28;20202;-86
2022/08/24 14:21:48;;;;;;;1.80;1.70;;;;;;;;;;5012663;28;20763;-86
2022/08/24 14:24:24;;;;;;;3.15;1.52;;;;;;;;;;5027559;28;20199;-87
2022/08/24 14:27:03;;;;;;;2.85;1.77;;;;;;;;;;5020585;28;20238;-87
2022/08/24 14:29:41;;;;;;;4.10;1.80;;;;;;;;;;5032341;28;20211;-87
2022/08/24 14:32:23;;;;;;;5.13;1.80;;;;;;;;;;5029122;28;20206;-87
2022/08/24 14:34:54;;;;;;;1.60;1.50;;;;;;;;;;5024155;28;20238;-87
2022/08/24 14:37:23;;;;;;;2.75;1.80;;;;;;;;;;5027056;28;21454;-86
2022/08/24 14:39:55;;;;;;;4.18;2.03;;;;;;;;;;5032418;28;20234;-87
2022/08/24 14:42:24;;;;;;;2.15;1.73;;;;;;;;;;5033374;28;20199;-86
2022/08/24 14:44:58;;;;;;;1.73;1.63;;;;;;;;;;5040475;28;20229;-86
2022/08/24 14:47:34;;;;;;;1.70;1.60;;;;;;;;;;5035330;28;20580;-87
2022/08/24 14:50:07;;;;;;;1.75;1.50;;;;;;;;;;5034552;28;20331;-86
2022/08/24 14:52:44;;;;;;;3.10;1.70;;;;;;;;;;5029255;28;20683;-86
2022/08/24 14:55:16;;;;;;;2.78;1.73;;;;;;;;;;5029810;28;20246;-86
2022/08/24 14:57:47;;;;;;;1.63;1.50;;;;;;;;;;5022227;28;20224;-87
2022/08/24 15:00:17;;;;;;;2.60;1.67;;;;;;;;;;5024403;28;20232;-87
2022/08/24 15:02:52;;;;;;;2.00;1.77;;;;;;;;;;5027553;28;20203;-87
2022/08/24 15:05:24;;;;;;;3.40;1.80;;;;;;;;;;5029995;28;20222;-87
2022/08/24 15:07:57;;;;;;;1.83;1.70;;;;;;;;;;5030476;28;20755;-87
2022/08/24 15:10:25;;;;;;;1.92;1.77;;;;;;;;;;5029516;28;20620;-86
2022/08/24 15:12:56;;;;;;;1.95;1.50;;;;;;;;;;5025554;28;20227;-86
2022/08/24 15:15:27;;;;;;;2.45;1.48;;;;;;;;;;5032082;28;20289;-86
2022/08/24 15:17:58;;;;;;;1.73;1.63;;;;;;;;;;5019981;28;20330;-86
2022/08/24 15:20:42;;;;;;;3.65;2.08;;;;;;;;;;5029549;28;20226;-87